Terminal Aerodrome Forecast
Issued by NWS Charleston, WV

Current Version | Previous Version | Graphics & Text | Print | Product List | Glossary On
Versions: 1 2 3 4 5 6 7 8 9 10 11 12 13 14 15 16 17 18 19 20 21 22 23 24 25 26 27 28
000
FTUS41 KRLX 291429 AAA
TAFEKN
TAF AMD
KEKN 291429Z 2914/3012 34004KT P6SM OVC007
     FM291615 35003KT P6SM BKN015
     FM291800 02004KT P6SM SCT200
     FM300800 13005KT P6SM BKN040=

USA.gov is the U.S. government's official web portal to all federal, state and local government web resources and services.